Time;durP1;ratioP1;P1;durP2;ratioP2;P2;SDS_P1;SDS_P2;PMS_P1;PMS_P2;Temp;Humidity;BMP_temperature;BMP_pressure;BME280_temperature;BME280_humidity;BME280_pressure;Samples;Min_cycle;Max_cycle;Signal;HPM_P1;HPM_P2
2023/04/11 00:02:24;;;;;;;23.63;4.40;;;10.40;99.90;;;;;;5093060;28;20677;-73
2023/04/11 00:04:53;;;;;;;18.93;4.97;;;10.40;99.90;;;;;;5092857;28;20230;-72
2023/04/11 00:07:20;;;;;;;22.03;5.03;;;10.40;99.90;;;;;;5093292;28;20167;-72
2023/04/11 00:09:51;;;;;;;25.87;5.00;;;10.50;99.90;;;;;;5091274;28;20187;-71
2023/04/11 00:12:17;;;;;;;24.97;5.17;;;10.50;99.90;;;;;;5092936;28;20279;-71
2023/04/11 00:14:47;;;;;;;24.17;5.40;;;10.50;99.90;;;;;;5092828;28;20247;-71
2023/04/11 00:17:14;;;;;;;21.40;6.33;;;10.50;99.90;;;;;;5093115;28;20259;-72
2023/04/11 00:19:42;;;;;;;23.07;5.00;;;10.50;99.90;;;;;;5092942;28;20157;-72
2023/04/11 00:22:09;;;;;;;31.50;5.67;;;10.40;99.90;;;;;;5092998;28;20232;-71
2023/04/11 00:24:34;;;;;;;22.07;4.77;;;10.40;99.90;;;;;;5092483;28;20209;-71
2023/04/11 00:27:00;;;;;;;26.67;5.10;;;10.30;99.90;;;;;;5092838;28;20172;-70
2023/04/11 00:29:26;;;;;;;18.97;4.77;;;10.20;99.90;;;;;;5091519;28;20625;-71
2023/04/11 00:31:55;;;;;;;26.10;6.47;;;10.10;99.90;;;;;;5092495;28;20191;-72
2023/04/11 00:34:24;;;;;;;24.43;4.77;;;10.00;99.90;;;;;;5092670;28;20237;-71
2023/04/11 00:36:50;;;;;;;25.60;5.33;;;10.00;99.90;;;;;;5092766;28;20179;-71
2023/04/11 00:39:20;;;;;;;27.27;5.17;;;9.90;99.90;;;;;;5091977;28;20220;-71
2023/04/11 00:41:46;;;;;;;25.30;7.67;;;9.90;99.90;;;;;;5093189;28;20177;-71
2023/04/11 00:44:12;;;;;;;28.60;5.20;;;9.90;99.90;;;;;;5096458;28;20286;-72
2023/04/11 00:46:42;;;;;;;23.27;5.10;;;9.90;99.90;;;;;;5096735;28;20164;-71
2023/04/11 00:49:09;;;;;;;23.50;4.77;;;9.90;99.90;;;;;;5096417;28;20168;-71
2023/04/11 00:51:38;;;;;;;30.37;5.57;;;9.90;99.90;;;;;;5096520;28;20627;-72
2023/04/11 00:54:08;;;;;;;28.53;4.77;;;9.80;99.90;;;;;;5095665;28;20207;-72
2023/04/11 00:56:34;;;;;;;23.23;5.00;;;9.80;99.90;;;;;;5096402;28;20176;-71
2023/04/11 00:58:59;;;;;;;23.53;4.30;;;9.70;99.90;;;;;;5096127;28;20645;-71
2023/04/11 01:01:25;;;;;;;22.07;5.03;;;9.70;99.90;;;;;;5096362;28;20184;-71
2023/04/11 01:03:53;;;;;;;22.50;5.37;;;9.70;99.90;;;;;;5095795;28;20215;-70
2023/04/11 01:06:21;;;;;;;21.20;5.10;;;9.70;99.90;;;;;;5096225;28;20172;-70
2023/04/11 01:08:47;;;;;;;26.30;4.70;;;9.60;99.90;;;;;;5094379;28;20214;-71
2023/04/11 01:11:16;;;;;;;33.93;5.43;;;9.50;99.90;;;;;;5096190;28;20176;-71
2023/04/11 01:13:42;;;;;;;23.93;4.53;;;9.50;99.90;;;;;;5095882;28;20535;-71
2023/04/11 01:16:08;;;;;;;20.03;5.17;;;9.50;99.90;;;;;;5095955;28;20168;-71
2023/04/11 01:18:35;;;;;;;23.23;4.90;;;9.50;99.90;;;;;;5095756;28;20647;-72
2023/04/11 01:21:08;;;;;;;25.70;4.93;;;9.50;99.90;;;;;;5094588;28;20684;-72
2023/04/11 01:23:37;;;;;;;22.07;4.80;;;9.50;99.90;;;;;;5095316;28;20215;-71
2023/04/11 01:26:02;;;;;;;22.77;4.90;;;9.50;99.90;;;;;;5095723;28;20171;-71
2023/04/11 01:28:28;;;;;;;21.17;4.90;;;9.40;99.90;;;;;;5094484;28;20176;-71
2023/04/11 01:30:53;;;;;;;25.27;4.80;;;9.50;99.90;;;;;;5095673;28;20520;-72
2023/04/11 01:33:20;;;;;;;24.23;4.63;;;9.40;99.90;;;;;;5095707;28;20222;-71
2023/04/11 01:35:51;;;;;;;20.60;4.03;;;9.40;99.90;;;;;;5095307;28;20179;-71
2023/04/11 01:38:17;;;;;;;23.90;5.30;;;9.50;99.90;;;;;;5095066;28;20255;-70
2023/04/11 01:40:46;;;;;;;25.10;4.63;;;9.40;99.90;;;;;;5095353;28;20199;-71
2023/04/11 01:43:12;;;;;;;26.73;5.00;;;9.40;99.90;;;;;;5095362;28;20682;-71
2023/04/11 01:45:39;;;;;;;24.87;4.67;;;9.40;99.90;;;;;;5095777;28;20221;-71
2023/04/11 01:48:06;;;;;;;18.43;5.03;;;9.50;99.90;;;;;;5095332;28;20175;-71
2023/04/11 01:50:32;;;;;;;19.97;4.30;;;9.50;99.90;;;;;;5093677;28;20180;-71
2023/04/11 01:52:57;;;;;;;26.40;4.63;;;9.50;99.90;;;;;;5095109;28;20217;-71
2023/04/11 01:55:23;;;;;;;16.63;4.03;;;9.50;99.90;;;;;;5094374;28;20665;-71
2023/04/11 01:57:49;;;;;;;24.30;5.00;;;9.60;99.90;;;;;;5095330;28;20164;-71
2023/04/11 02:00:15;;;;;;;21.17;4.50;;;9.60;99.90;;;;;;5094898;28;20627;-71
2023/04/11 02:02:41;;;;;;;21.50;4.47;;;9.60;99.90;;;;;;5094822;28;20670;-71
2023/04/11 02:05:12;;;;;;;22.40;4.83;;;9.50;99.90;;;;;;5093693;28;20168;-71
2023/04/11 02:07:38;;;;;;;17.07;4.47;;;9.50;99.90;;;;;;5093400;28;20171;-72
2023/04/11 02:10:04;;;;;;;19.23;4.10;;;9.50;99.90;;;;;;5095277;28;20168;-71
2023/04/11 02:12:33;;;;;;;25.27;5.47;;;9.50;99.90;;;;;;5094955;28;20172;-70
2023/04/11 02:14:58;;;;;;;26.33;4.57;;;9.50;99.90;;;;;;5094625;28;20172;-70
2023/04/11 02:17:25;;;;;;;16.13;4.30;;;9.50;99.90;;;;;;5094749;28;20190;-70
2023/04/11 02:19:51;;;;;;;23.70;4.17;;;9.50;99.90;;;;;;5093523;28;20233;-70
2023/04/11 02:22:17;;;;;;;18.47;4.70;;;9.50;99.90;;;;;;5094390;28;20235;-70
2023/04/11 02:24:50;;;;;;;26.17;4.60;;;9.50;99.90;;;;;;5094465;28;20168;-70
2023/04/11 02:27:16;;;;;;;23.70;4.47;;;9.50;99.90;;;;;;5094783;28;20168;-70
2023/04/11 02:29:41;;;;;;;27.07;4.40;;;9.50;99.90;;;;;;5094369;28;20172;-71
2023/04/11 02:32:09;;;;;;;25.70;4.67;;;9.40;99.90;;;;;;5094725;28;20160;-70
2023/04/11 02:34:35;;;;;;;25.10;4.43;;;9.40;99.90;;;;;;5093908;28;20164;-70
2023/04/11 02:37:01;;;;;;;20.63;4.20;;;9.30;99.90;;;;;;5094749;28;20627;-70
2023/04/11 02:39:27;;;;;;;22.30;4.57;;;9.30;99.90;;;;;;5094106;28;20231;-70
2023/04/11 02:41:56;;;;;;;28.03;4.77;;;9.30;99.90;;;;;;5094269;28;20203;-71
2023/04/11 02:44:21;;;;;;;20.10;4.17;;;9.20;99.90;;;;;;5094173;28;20180;-71
2023/04/11 02:46:47;;;;;;;28.27;4.70;;;9.20;99.90;;;;;;5094048;28;20208;-70
2023/04/11 02:49:15;;;;;;;26.07;4.43;;;9.10;99.90;;;;;;5093971;28;20179;-72
2023/04/11 02:51:41;;;;;;;22.63;4.57;;;9.10;99.90;;;;;;5094021;28;20171;-71
2023/04/11 02:54:07;;;;;;;24.47;5.07;;;9.10;99.90;;;;;;5092944;28;20229;-71
2023/04/11 02:56:33;;;;;;;23.23;4.53;;;9.10;99.90;;;;;;5093926;28;20534;-72
2023/04/11 02:58:59;;;;;;;22.97;4.43;;;9.00;99.90;;;;;;5093949;28;20207;-71
2023/04/11 03:01:25;;;;;;;20.40;4.20;;;8.90;99.90;;;;;;5093826;28;20200;-70
2023/04/11 03:03:51;;;;;;;22.37;4.17;;;8.90;99.90;;;;;;5093660;28;20203;-71
2023/04/11 03:06:16;;;;;;;27.90;4.63;;;8.90;99.90;;;;;;5092978;28;20204;-71
2023/04/11 03:08:42;;;;;;;16.70;4.23;;;8.80;99.90;;;;;;5094026;28;20179;-71
2023/04/11 03:11:07;;;;;;;19.10;4.80;;;8.80;99.90;;;;;;5093801;28;20168;-71
2023/04/11 03:13:42;;;;;;;24.07;4.37;;;8.80;99.90;;;;;;5093632;28;20184;-72
2023/04/11 03:16:08;;;;;;;25.77;4.40;;;8.80;99.90;;;;;;5093102;28;20228;-71
2023/04/11 03:18:34;;;;;;;17.10;3.93;;;8.80;99.90;;;;;;5093219;28;20263;-72
2023/04/11 03:20:59;;;;;;;24.90;4.47;;;8.80;99.90;;;;;;5093231;28;20253;-72
2023/04/11 03:23:25;;;;;;;20.90;4.17;;;8.80;99.90;;;;;;5093234;28;20223;-71
2023/04/11 03:25:52;;;;;;;24.63;4.43;;;8.90;99.90;;;;;;5093317;28;20254;-71
2023/04/11 03:28:18;;;;;;;21.10;5.00;;;9.00;99.90;;;;;;5093331;28;20623;-71
2023/04/11 03:30:45;;;;;;;22.13;4.50;;;9.00;99.90;;;;;;5093073;28;20168;-71
2023/04/11 03:33:10;;;;;;;24.60;4.60;;;9.00;99.90;;;;;;5093208;28;20167;-71
2023/04/11 03:35:36;;;;;;;22.17;4.80;;;9.10;99.90;;;;;;5093156;28;20168;-71
2023/04/11 03:38:02;;;;;;;18.37;4.63;;;9.10;99.90;;;;;;5092996;28;20694;-71
2023/04/11 03:40:28;;;;;;;22.30;3.87;;;9.10;99.90;;;;;;5093125;28;20210;-70
2023/04/11 03:42:54;;;;;;;25.73;4.83;;;9.00;99.90;;;;;;5092552;28;20211;-72
2023/04/11 03:45:20;;;;;;;22.70;4.97;;;9.00;99.90;;;;;;5093297;28;20232;-71
2023/04/11 03:47:45;;;;;;;21.57;4.27;;;8.90;99.90;;;;;;5091198;28;20627;-70
2023/04/11 03:50:14;;;;;;;18.60;4.13;;;8.90;99.90;;;;;;5092789;28;20187;-71
2023/04/11 03:52:40;;;;;;;21.73;4.00;;;8.70;99.90;;;;;;5091556;28;20199;-71
2023/04/11 03:55:06;;;;;;;22.97;4.50;;;8.80;99.90;;;;;;5092537;28;20554;-71
2023/04/11 03:57:31;;;;;;;19.37;4.27;;;8.70;99.90;;;;;;5092971;28;20180;-70
2023/04/11 04:00:09;;;;;;;26.70;4.57;;;8.70;99.90;;;;;;5091610;28;20176;-72
2023/04/11 04:02:35;;;;;;;18.87;4.40;;;8.60;99.90;;;;;;5091190;28;20290;-71
2023/04/11 04:05:04;;;;;;;23.57;4.30;;;8.60;99.90;;;;;;5093016;28;20187;-71
2023/04/11 04:07:30;;;;;;;26.33;4.67;;;8.60;99.90;;;;;;5092027;28;20172;-71
2023/04/11 04:09:56;;;;;;;19.30;4.47;;;8.60;99.90;;;;;;5092596;28;20160;-71
2023/04/11 04:12:21;;;;;;;26.70;4.70;;;8.50;99.90;;;;;;5092367;28;20187;-71
2023/04/11 04:14:48;;;;;;;21.17;4.10;;;8.50;99.90;;;;;;5092725;28;20263;-71
2023/04/11 04:17:15;;;;;;;28.57;4.87;;;8.50;99.90;;;;;;5093244;28;20160;-71
2023/04/11 04:19:41;;;;;;;18.00;4.57;;;8.50;99.90;;;;;;5096770;28;20219;-71
2023/04/11 04:22:16;;;;;;;22.00;4.37;;;8.50;99.90;;;;;;5095017;28;20250;-71
2023/04/11 04:24:45;;;;;;;23.07;4.20;;;8.60;99.90;;;;;;5096760;28;20220;-71
2023/04/11 04:27:19;;;;;;;20.77;3.80;;;8.60;99.90;;;;;;5094862;28;20194;-70
2023/04/11 04:29:46;;;;;;;29.77;5.20;;;8.70;99.90;;;;;;5096621;28;20669;-71
2023/04/11 04:32:19;;;;;;;21.60;4.17;;;8.70;99.90;;;;;;5096054;28;20250;-71
2023/04/11 04:34:49;;;;;;;28.07;4.73;;;8.60;99.90;;;;;;5095994;28;20255;-72
2023/04/11 04:37:22;;;;;;;21.87;4.33;;;8.70;99.90;;;;;;5096059;28;20194;-71
2023/04/11 04:39:55;;;;;;;28.43;4.40;;;8.70;99.90;;;;;;5096373;28;20499;-71
2023/04/11 04:42:26;;;;;;;22.60;4.60;;;8.70;99.90;;;;;;5095714;28;20578;-70
2023/04/11 04:44:54;;;;;;;25.53;4.47;;;8.70;99.90;;;;;;5096345;28;20180;-70
2023/04/11 04:47:22;;;;;;;16.03;3.87;;;8.70;99.90;;;;;;5095397;28;20630;-71
2023/04/11 04:49:48;;;;;;;20.10;3.87;;;8.70;99.90;;;;;;5096084;28;20180;-71
2023/04/11 04:52:14;;;;;;;21.23;4.30;;;8.70;99.90;;;;;;5095722;28;20654;-71
2023/04/11 04:54:40;;;;;;;23.43;4.60;;;8.60;99.90;;;;;;5095806;28;20164;-71
2023/04/11 04:57:06;;;;;;;22.93;4.40;;;8.60;99.90;;;;;;5095804;28;20179;-70
2023/04/11 04:59:32;;;;;;;20.77;4.50;;;8.60;99.90;;;;;;5095326;28;20255;-71
2023/04/11 05:01:58;;;;;;;25.70;4.47;;;8.60;99.90;;;;;;5094699;28;20262;-71
2023/04/11 05:04:27;;;;;;;23.10;4.53;;;8.60;99.90;;;;;;5095696;28;20658;-71
2023/04/11 05:06:52;;;;;;;21.77;4.70;;;8.50;99.90;;;;;;5095776;28;20211;-71
2023/04/11 05:09:18;;;;;;;25.60;4.67;;;8.50;99.90;;;;;;5095531;28;20186;-70
2023/04/11 05:11:44;;;;;;;22.50;4.77;;;8.50;99.90;;;;;;5095067;28;20191;-71
2023/04/11 05:14:09;;;;;;;20.70;4.23;;;8.50;99.90;;;;;;5095103;28;20559;-71
2023/04/11 05:16:36;;;;;;;21.23;4.10;;;8.60;99.90;;;;;;5095051;28;20223;-71
2023/04/11 05:19:02;;;;;;;17.07;4.53;;;8.70;99.90;;;;;;5095652;28;20160;-72
2023/04/11 05:21:28;;;;;;;21.27;4.33;;;8.90;99.90;;;;;;5094555;28;20168;-71
2023/04/11 05:23:53;;;;;;;19.53;3.87;;;9.10;99.90;;;;;;5094708;28;20685;-71
2023/04/11 05:26:19;;;;;;;17.90;3.97;;;9.40;99.90;;;;;;5094839;28;20680;-72
2023/04/11 05:28:45;;;;;;;20.83;4.23;;;9.80;99.90;;;;;;5093231;28;20661;-71
2023/04/11 05:31:10;;;;;;;18.90;4.30;;;10.20;99.90;;;;;;5094394;28;20168;-72
2023/04/11 05:33:37;;;;;;;20.63;3.83;;;10.70;94.10;;;;;;5095408;28;20175;-72
2023/04/11 05:36:06;;;;;;;21.43;4.53;;;11.30;71.70;;;;;;5093979;28;20171;-72
2023/04/11 05:38:32;;;;;;;19.03;4.07;;;11.80;50.30;;;;;;5094909;28;20215;-73
2023/04/11 05:41:00;;;;;;;17.80;4.03;;;12.40;24.90;;;;;;5093801;28;20176;-74
2023/04/11 05:43:26;;;;;;;15.80;3.67;;;12.90;5.00;;;;;;5091961;28;20242;-73
2023/04/11 05:45:51;;;;;;;17.97;4.80;;;13.40;1.00;;;;;;5094606;28;20206;-72
2023/04/11 05:48:20;;;;;;;21.10;4.37;;;13.50;1.00;;;;;;5094127;28;20548;-72
2023/04/11 05:50:45;;;;;;;17.33;4.23;;;13.40;1.00;;;;;;5094829;28;20225;-72
2023/04/11 05:53:11;;;;;;;14.60;4.00;;;12.90;1.00;;;;;;5094744;28;20651;-72
2023/04/11 05:55:37;;;;;;;17.50;4.30;;;12.80;1.00;;;;;;5094390;28;20178;-73
2023/04/11 05:58:03;;;;;;;17.17;4.53;;;13.20;1.00;;;;;;5093971;28;20183;-72
2023/04/11 06:00:37;;;;;;;15.27;4.00;;;13.80;1.00;;;;;;5094223;28;20168;-73
2023/04/11 06:03:03;;;;;;;18.83;4.00;;;14.80;1.00;;;;;;5093426;28;20349;-73
2023/04/11 06:05:30;;;;;;;21.73;3.97;;;15.80;1.00;;;;;;5094246;28;20183;-72
2023/04/11 06:07:59;;;;;;;16.10;4.67;;;16.10;1.00;;;;;;5094039;28;20183;-74
2023/04/11 06:10:25;;;;;;;14.30;3.77;;;16.70;1.00;;;;;;5093318;28;20180;-73
2023/04/11 06:12:51;;;;;;;14.83;4.03;;;17.00;99.90;;;;;;5092892;28;20232;-73
2023/04/11 06:15:17;;;;;;;17.27;4.32;;;16.80;1.00;;;;;;5093731;28;20670;-74
2023/04/11 06:17:44;;;;;;;14.35;4.28;;;17.40;99.90;;;;;;5093880;28;20616;-74
2023/04/11 06:20:10;;;;;;;11.18;4.18;;;17.20;99.90;;;;;;5094195;28;20164;-75
2023/04/11 06:22:36;;;;;;;16.27;4.13;;;17.40;1.00;;;;;;5093478;28;20297;-74
2023/04/11 06:25:01;;;;;;;14.35;3.95;;;17.60;99.90;;;;;;5091923;28;20640;-76
2023/04/11 06:27:27;;;;;;;12.77;3.92;;;17.70;99.90;;;;;;5093368;28;20172;-76
2023/04/11 06:29:53;;;;;;;14.93;4.00;;;17.90;99.90;;;;;;5093873;28;20518;-76
2023/04/11 06:32:19;;;;;;;14.13;4.30;;;18.50;99.90;;;;;;5093021;28;20160;-77
2023/04/11 06:34:44;;;;;;;10.80;3.83;;;18.60;99.90;;;;;;5093274;28;20251;-75
2023/04/11 06:37:13;;;;;;;14.52;3.85;;;19.10;1.00;;;;;;5093303;28;20535;-77
2023/04/11 06:39:41;;;;;;;13.35;3.88;;;19.20;1.00;;;;;;5093241;28;20220;-76
2023/04/11 06:42:07;;;;;;;12.10;3.90;;;19.00;1.00;;;;;;5092067;28;20253;-77
2023/04/11 06:44:32;;;;;;;13.02;3.60;;;18.70;1.00;;;;;;5092921;28;20208;-76
2023/04/11 06:46:58;;;;;;;11.98;4.20;;;19.00;1.00;;;;;;5091976;28;20236;-75
2023/04/11 06:49:26;;;;;;;10.35;3.45;;;19.10;1.00;;;;;;5092244;28;20204;-76
2023/04/11 06:51:53;;;;;;;12.50;4.15;;;19.40;99.90;;;;;;5092793;28;20167;-77
2023/04/11 06:54:19;;;;;;;11.27;4.05;;;19.90;1.00;;;;;;5092917;28;20706;-76
2023/04/11 06:56:46;;;;;;;12.60;3.95;;;20.10;1.00;;;;;;5093305;28;20186;-76
2023/04/11 06:59:12;;;;;;;10.88;3.97;;;20.60;1.00;;;;;;5092931;28;20258;-75
2023/04/11 07:01:38;;;;;;;12.13;3.60;;;19.70;7.90;;;;;;5093149;28;20160;-75
2023/04/11 07:04:05;;;;;;;15.80;3.80;;;18.30;99.90;;;;;;5092515;28;20199;-75
2023/04/11 07:06:31;;;;;;;15.40;3.72;;;18.50;99.90;;;;;;5093289;28;20243;-77
2023/04/11 07:08:59;;;;;;;14.07;3.75;;;19.00;99.90;;;;;;5091942;28;20194;-75
2023/04/11 07:11:25;;;;;;;8.82;3.10;;;18.90;1.00;;;;;;5092480;28;20163;-75
2023/04/11 07:13:51;;;;;;;11.48;3.50;;;18.20;1.00;;;;;;5092610;28;20213;-78
2023/04/11 07:16:17;;;;;;;12.20;3.60;;;18.90;1.00;;;;;;5092327;28;20172;-76
2023/04/11 07:18:43;;;;;;;11.70;3.30;;;20.10;1.00;;;;;;5093007;28;20238;-76
2023/04/11 07:21:12;;;;;;;14.23;3.83;;;20.70;1.00;;;;;;5093025;28;20175;-75
2023/04/11 07:23:39;;;;;;;15.30;4.03;;;20.20;1.00;;;;;;5092268;28;20743;-75
2023/04/11 07:26:05;;;;;;;13.30;3.72;;;20.30;1.00;;;;;;5092499;28;20172;-75
2023/04/11 07:28:31;;;;;;;9.85;3.10;;;19.90;99.90;;;;;;5092258;28;20619;-74
2023/04/11 07:30:57;;;;;;;12.20;3.67;;;19.10;1.00;;;;;;5092105;28;20168;-75
2023/04/11 07:33:22;;;;;;;12.60;3.45;;;17.80;99.90;;;;;;5092607;28;20652;-76
2023/04/11 07:35:48;;;;;;;15.27;3.50;;;17.90;1.00;;;;;;5092943;28;20210;-75
2023/04/11 07:38:27;;;;;;;9.23;3.45;;;17.40;99.90;;;;;;5092085;28;20336;-74
2023/04/11 07:40:53;;;;;;;13.00;3.35;;;17.50;1.00;;;;;;5092671;28;20175;-74
2023/04/11 07:43:18;;;;;;;12.43;3.17;;;17.70;99.90;;;;;;5091940;28;20203;-74
2023/04/11 07:45:44;;;;;;;13.00;3.13;;;17.00;1.00;;;;;;5092260;28;20601;-75
2023/04/11 07:48:10;;;;;;;10.82;3.30;;;17.00;99.90;;;;;;5092624;28;20617;-76
2023/04/11 07:50:36;;;;;;;11.82;3.20;;;17.10;99.90;;;;;;5090414;28;20268;-74
2023/04/11 07:53:02;;;;;;;6.75;2.90;;;18.10;1.00;;;;;;5091247;28;20634;-73
2023/04/11 07:55:30;;;;;;;10.98;3.33;;;18.00;1.00;;;;;;5080270;28;20179;-74
2023/04/11 07:57:55;;;;;;;14.35;3.42;;;18.40;16.50;;;;;;5090136;28;20204;-73
2023/04/11 08:00:27;;;;;;;8.02;2.70;;;18.00;99.90;;;;;;5089457;28;20560;-72
2023/04/11 08:02:52;;;;;;;10.27;2.72;;;17.50;1.00;;;;;;5090898;28;20251;-73
2023/04/11 08:05:18;;;;;;;12.77;2.90;;;17.00;99.90;;;;;;5089067;28;20179;-72
2023/04/11 08:07:44;;;;;;;11.82;2.92;;;16.60;99.90;;;;;;5086387;28;20218;-74
2023/04/11 08:10:09;;;;;;;8.68;2.90;;;16.10;99.90;;;;;;5090408;28;20176;-71
2023/04/11 08:12:38;;;;;;;7.30;2.33;;;16.70;92.90;;;;;;5091594;28;20183;-71
2023/04/11 08:15:04;;;;;;;12.13;3.13;;;17.10;99.90;;;;;;5090872;28;20167;-73
2023/04/11 08:17:36;;;;;;;8.20;2.53;;;16.60;1.00;;;;;;5091269;28;20210;-73
2023/04/11 08:20:03;;;;;;;15.10;3.20;;;17.30;99.90;;;;;;5089282;28;20168;-71
2023/04/11 08:22:31;;;;;;;17.00;3.15;;;16.60;1.00;;;;;;5090686;28;20188;-72
2023/04/11 08:24:57;;;;;;;9.63;2.50;;;16.80;1.00;;;;;;5091301;28;20183;-72
2023/04/11 08:27:23;;;;;;;8.90;3.05;;;17.60;43.20;;;;;;5091295;28;20526;-73
2023/04/11 08:29:49;;;;;;;9.57;2.67;;;17.70;1.00;;;;;;5090998;28;20711;-74
2023/04/11 08:32:17;;;;;;;8.07;2.20;;;17.70;99.90;;;;;;5087693;28;20262;-73
2023/04/11 08:34:43;;;;;;;7.65;2.17;;;18.30;1.00;;;;;;5090892;28;20171;-75
2023/04/11 08:37:09;;;;;;;7.45;2.08;;;18.30;99.90;;;;;;5090501;28;20263;-74
2023/04/11 08:39:34;;;;;;;10.52;2.80;;;18.60;99.90;;;;;;5090502;28;20224;-73
2023/04/11 08:42:00;;;;;;;12.25;2.40;;;18.50;99.90;;;;;;5089774;28;20262;-74
2023/04/11 08:44:26;;;;;;;8.32;2.50;;;20.10;1.00;;;;;;5091201;28;20238;-74
2023/04/11 08:46:51;;;;;;;5.93;2.13;;;21.20;1.00;;;;;;5091354;28;20179;-75
2023/04/11 08:49:20;;;;;;;6.18;2.40;;;21.00;1.00;;;;;;5090933;28;20608;-75
2023/04/11 08:51:47;;;;;;;6.70;2.40;;;21.30;99.90;;;;;;5090873;28;20172;-74
2023/04/11 08:54:13;;;;;;;7.10;2.15;;;21.70;99.90;;;;;;5090813;28;20180;-75
2023/04/11 08:56:41;;;;;;;7.00;2.45;;;22.20;99.90;;;;;;5090207;28;20175;-76
2023/04/11 08:59:06;;;;;;;6.43;2.25;;;21.60;99.90;;;;;;5089706;28;20270;-76
2023/04/11 09:01:36;;;;;;;10.20;2.53;;;21.70;99.90;;;;;;5090483;28;20321;-75
2023/04/11 09:04:04;;;;;;;6.50;2.50;;;21.50;99.90;;;;;;5091780;28;20238;-75
2023/04/11 09:06:31;;;;;;;5.80;2.00;;;21.30;99.90;;;;;;5086785;28;20206;-78
2023/04/11 09:09:05;;;;;;;6.07;2.40;;;21.80;99.90;;;;;;5089884;28;20259;-75
2023/04/11 09:11:50;;;;;;;10.45;2.33;;;21.20;99.90;;;;;;5092315;28;20190;-75
2023/04/11 09:14:22;;;;;;;7.95;2.58;;;19.90;99.90;;;;;;5090964;28;20259;-74
2023/04/11 09:16:59;;;;;;;4.55;2.58;;;19.00;1.00;;;;;;5093666;28;20168;-76
2023/04/11 09:19:30;;;;;;;9.80;2.17;;;19.30;1.00;;;;;;5093784;28;20179;-76
2023/04/11 09:22:00;;;;;;;10.10;2.55;;;18.60;1.00;;;;;;5093374;28;20190;-77
2023/04/11 09:24:28;;;;;;;6.25;2.20;;;18.50;1.00;;;;;;5093740;28;20227;-75
2023/04/11 09:27:07;;;;;;;5.18;2.30;;;18.00;99.90;;;;;;5094018;28;20208;-75
2023/04/11 09:29:41;;;;;;;7.20;2.58;;;18.50;1.00;;;;;;5093806;28;20191;-75
2023/04/11 09:32:25;;;;;;;7.28;2.25;;;18.70;1.00;;;;;;5093832;28;20240;-75
2023/04/11 09:34:50;;;;;;;6.63;2.50;;;20.10;1.00;;;;;;5082191;28;20175;-76
2023/04/11 09:37:21;;;;;;;6.75;2.20;;;20.30;99.90;;;;;;5093503;28;20164;-78
2023/04/11 09:39:58;;;;;;;9.95;2.45;;;21.00;99.90;;;;;;5093304;28;20223;-76
2023/04/11 09:42:24;;;;;;;9.10;2.15;;;21.50;99.90;;;;;;5091606;28;20543;-75
2023/04/11 09:44:49;;;;;;;7.65;2.55;;;20.50;99.90;;;;;;5092733;28;20184;-76
2023/04/11 09:47:15;;;;;;;10.73;3.10;;;18.70;99.90;;;;;;5093394;28;20254;-78
2023/04/11 09:49:42;;;;;;;8.07;2.10;;;18.80;1.00;;;;;;5093372;28;20646;-81
2023/04/11 09:52:07;;;;;;;7.03;2.38;;;19.30;1.00;;;;;;5093518;28;20651;-77
2023/04/11 09:54:34;;;;;;;5.57;2.17;;;17.90;1.00;;;;;;5092620;28;20295;-72
2023/04/11 09:57:01;;;;;;;7.82;2.40;;;17.30;99.90;;;;;;5092249;28;20651;-75
2023/04/11 09:59:28;;;;;;;7.85;2.45;;;16.90;1.00;;;;;;5092004;28;20208;-77
2023/04/11 10:01:56;;;;;;;11.00;2.85;;;16.50;91.30;;;;;;5092419;28;20179;-75
2023/04/11 10:04:22;;;;;;;7.45;2.90;;;16.80;47.90;;;;;;5092829;28;20300;-75
2023/04/11 10:07:05;;;;;;;6.05;2.40;;;16.90;1.00;;;;;;5092625;28;20241;-75
2023/04/11 10:09:32;;;;;;;7.03;2.37;;;16.10;99.90;;;;;;5092919;28;20184;-75
2023/04/11 10:11:58;;;;;;;7.53;2.50;;;16.10;1.00;;;;;;5093154;28;20203;-78
2023/04/11 10:14:40;;;;;;;6.63;2.33;;;15.50;1.00;;;;;;5092947;28;20269;-77
2023/04/11 10:17:17;;;;;;;8.90;2.50;;;15.30;1.00;;;;;;5091457;28;20306;-76
2023/04/11 10:19:44;;;;;;;5.10;2.50;;;15.00;99.90;;;;;;5092392;28;20194;-73
2023/04/11 10:22:12;;;;;;;7.67;2.30;;;14.90;1.00;;;;;;5092704;28;20180;-74
2023/04/11 10:25:01;;;;;;;7.90;2.50;;;14.70;99.90;;;;;;5086876;28;20235;-73
2023/04/11 10:27:52;;;;;;;6.53;2.47;;;14.80;92.10;;;;;;5092662;28;20240;-73
2023/04/11 10:30:18;;;;;;;6.90;2.77;;;14.80;1.00;;;;;;5076642;28;20619;-74
2023/04/11 10:33:12;;;;;;;13.43;2.40;;;14.80;99.90;;;;;;5091397;28;20179;-74
2023/04/11 10:36:03;;;;;;;7.23;2.30;;;15.00;99.90;;;;;;5092988;28;20184;-74
2023/04/11 10:38:47;;;;;;;7.10;2.80;;;15.80;99.90;;;;;;5093002;28;20257;-73
2023/04/11 10:41:21;;;;;;;4.93;2.33;;;15.70;99.90;;;;;;5093015;28;20191;-73
2023/04/11 10:43:48;;;;;;;5.93;2.40;;;15.70;39.20;;;;;;5092469;28;20199;-73
2023/04/11 10:46:20;;;;;;;14.33;2.80;;;15.30;99.90;;;;;;5093387;28;20172;-72
2023/04/11 10:49:34;;;;;;;10.37;2.57;;;15.00;99.90;;;;;;5091976;28;20232;-73
2023/04/11 10:52:26;;;;;;;7.80;2.50;;;15.10;1.00;;;;;;5027652;28;20193;-74
2023/04/11 10:54:52;;;;;;;11.47;2.70;;;15.70;99.90;;;;;;5026634;28;20190;-72
2023/04/11 10:57:19;;;;;;;5.50;2.30;;;16.40;1.00;;;;;;5022779;28;20217;-72
2023/04/11 10:59:53;;;;;;;9.48;2.47;;;17.30;96.20;;;;;;5019953;28;20174;-72
2023/04/11 11:02:20;;;;;;;7.83;2.33;;;16.80;44.50;;;;;;5026790;28;20189;-71
2023/04/11 11:04:46;;;;;;;6.83;2.20;;;16.70;99.90;;;;;;5016911;28;20191;-71
2023/04/11 11:07:16;;;;;;;10.83;2.57;;;16.30;99.90;;;;;;5019252;28;20185;-71
2023/04/11 11:09:52;;;;;;;6.63;2.28;;;16.10;1.00;;;;;;5022895;28;20189;-72
2023/04/11 11:12:27;;;;;;;7.70;2.50;;;16.10;1.00;;;;;;5021097;28;20201;-71
2023/04/11 11:14:53;;;;;;;5.27;2.50;;;16.20;1.00;;;;;;5015517;28;20729;-72
2023/04/11 11:17:20;;;;;;;9.67;2.90;;;16.40;1.00;;;;;;5025592;28;20691;-72
2023/04/11 11:19:47;;;;;;;7.32;2.42;;;16.40;1.00;;;;;;5014834;28;20240;-74
2023/04/11 11:22:25;;;;;;;4.95;1.77;;;16.80;99.90;;;;;;5023836;28;20181;-73
2023/04/11 11:24:51;;;;;;;7.90;2.42;;;17.60;1.00;;;;;;5023467;28;20621;-71
2023/04/11 11:27:22;;;;;;;7.55;2.15;;;18.20;1.00;;;;;;5022429;28;20176;-72
2023/04/11 11:29:48;;;;;;;9.57;2.58;;;18.00;1.00;;;;;;5091669;28;20254;-72
2023/04/11 11:32:27;;;;;;;6.13;2.33;;;17.30;1.00;;;;;;5090969;28;20247;-73
2023/04/11 11:34:53;;;;;;;5.82;2.00;;;16.70;99.90;;;;;;5091453;28;20214;-72
2023/04/11 11:37:18;;;;;;;11.25;2.53;;;16.60;1.00;;;;;;5090635;28;20631;-72
2023/04/11 11:39:44;;;;;;;8.77;2.38;;;16.90;99.90;;;;;;5088811;28;20299;-72
2023/04/11 11:42:19;;;;;;;8.75;2.50;;;17.40;19.20;;;;;;5091629;28;20188;-71
2023/04/11 11:44:45;;;;;;;7.85;2.40;;;18.00;1.00;;;;;;5090959;28;20248;-72
2023/04/11 11:47:13;;;;;;;7.95;2.45;;;18.00;1.00;;;;;;5090366;28;20648;-71
2023/04/11 11:49:50;;;;;;;6.55;2.30;;;17.90;1.00;;;;;;5088495;28;20168;-74
2023/04/11 11:52:39;;;;;;;4.40;2.03;;;17.20;1.00;;;;;;5090028;28;20217;-74
2023/04/11 11:55:25;;;;;;;13.55;2.60;;;16.70;99.90;;;;;;5091705;28;20172;-75
2023/04/11 11:57:50;;;;;;;7.03;2.10;;;16.30;99.90;;;;;;5080281;28;20266;-75
2023/04/11 12:00:26;;;;;;;10.00;2.67;;;16.20;1.00;;;;;;5091006;28;20694;-77
2023/04/11 12:02:53;;;;;;;9.10;2.67;;;16.10;1.00;;;;;;5090213;28;20211;-74
2023/04/11 12:05:19;;;;;;;7.37;1.87;;;16.20;1.00;;;;;;5091777;28;20168;-73
2023/04/11 12:07:47;;;;;;;10.03;2.50;;;16.20;99.90;;;;;;5090386;28;20175;-77
2023/04/11 12:10:15;;;;;;;7.93;2.27;;;16.40;99.90;;;;;;5085363;28;20255;-75
2023/04/11 12:12:51;;;;;;;7.97;2.30;;;16.20;1.00;;;;;;5091274;28;20258;-73
2023/04/11 12:15:21;;;;;;;6.40;2.33;;;15.80;99.90;;;;;;5090656;28;20176;-73
2023/04/11 12:17:51;;;;;;;14.10;2.90;;;16.00;99.90;;;;;;5091317;28;20164;-74
2023/04/11 12:20:25;;;;;;;6.83;2.20;;;16.10;99.90;;;;;;5085825;28;20184;-73
2023/04/11 12:22:59;;;;;;;6.33;2.20;;;16.40;1.00;;;;;;5089434;28;20266;-74
2023/04/11 12:25:27;;;;;;;7.47;2.20;;;16.30;1.00;;;;;;5090647;28;20178;-75
2023/04/11 12:27:52;;;;;;;11.63;2.67;;;16.10;1.00;;;;;;5090350;28;20703;-74
2023/04/11 12:30:18;;;;;;;9.70;2.50;;;16.20;99.90;;;;;;5090794;28;20270;-73
2023/04/11 12:32:44;;;;;;;6.87;2.37;;;15.90;62.60;;;;;;5090089;28;20626;-74
2023/04/11 12:35:11;;;;;;;7.60;2.43;;;16.10;1.00;;;;;;5091082;28;20179;-76
2023/04/11 12:37:37;;;;;;;9.23;2.60;;;16.30;28.20;;;;;;5089946;28;20168;-75
2023/04/11 12:40:11;;;;;;;7.63;2.40;;;16.60;1.00;;;;;;5094361;28;20184;-74
2023/04/11 12:42:40;;;;;;;7.67;2.57;;;17.00;99.90;;;;;;5093872;28;20187;-76
2023/04/11 12:45:10;;;;;;;7.63;2.40;;;16.70;1.00;;;;;;5094617;28;20187;-73
2023/04/11 12:47:39;;;;;;;5.00;2.33;;;16.60;1.00;;;;;;5093160;28;20270;-73
2023/04/11 12:50:06;;;;;;;9.57;2.57;;;16.80;1.00;;;;;;5094668;28;20233;-74
2023/04/11 12:52:35;;;;;;;7.20;2.92;;;16.50;1.00;;;;;;5093711;28;20164;-72